sensor_id;sensor_type;location;lat;lon;timestamp;P1;durP1;ratioP1;P2;durP2;ratioP2
13250;SDS011;6692;50.710;7.180;2022-11-20T00:01:47;410.43;;;394.23;;
13250;SDS011;6692;50.710;7.180;2022-11-20T00:03:48;407.30;;;391.03;;
13250;SDS011;6692;50.710;7.180;2022-11-20T00:05:49;428.98;;;412.15;;
13250;SDS011;6692;50.710;7.180;2022-11-20T00:07:49;421.27;;;404.57;;
13250;SDS011;6692;50.710;7.180;2022-11-20T00:09:50;428.83;;;411.93;;
13250;SDS011;6692;50.710;7.180;2022-11-20T00:11:51;420.80;;;404.17;;
13250;SDS011;6692;50.710;7.180;2022-11-20T00:13:54;423.47;;;406.60;;
13250;SDS011;6692;50.710;7.180;2022-11-20T00:15:57;410.20;;;393.73;;
13250;SDS011;6692;50.710;7.180;2022-11-20T00:17:57;421.42;;;404.95;;
13250;SDS011;6692;50.710;7.180;2022-11-20T00:19:58;424.03;;;407.07;;
13250;SDS011;6692;50.710;7.180;2022-11-20T00:21:59;413.77;;;397.73;;
13250;SDS011;6692;50.710;7.180;2022-11-20T00:24:01;417.60;;;401.40;;
13250;SDS011;6692;50.710;7.180;2022-11-20T00:26:03;406.83;;;391.27;;
13250;SDS011;6692;50.710;7.180;2022-11-20T00:28:03;417.33;;;401.20;;
13250;SDS011;6692;50.710;7.180;2022-11-20T00:30:04;396.37;;;381.17;;
13250;SDS011;6692;50.710;7.180;2022-11-20T00:32:06;404.43;;;388.77;;
13250;SDS011;6692;50.710;7.180;2022-11-20T00:34:08;382.00;;;367.33;;
13250;SDS011;6692;50.710;7.180;2022-11-20T00:36:09;380.23;;;365.63;;
13250;SDS011;6692;50.710;7.180;2022-11-20T00:38:09;377.83;;;363.17;;
13250;SDS011;6692;50.710;7.180;2022-11-20T00:40:10;376.67;;;362.10;;
13250;SDS011;6692;50.710;7.180;2022-11-20T00:42:11;387.73;;;372.90;;
13250;SDS011;6692;50.710;7.180;2022-11-20T00:44:12;388.93;;;374.20;;
13250;SDS011;6692;50.710;7.180;2022-11-20T00:46:14;384.00;;;369.27;;
13250;SDS011;6692;50.710;7.180;2022-11-20T00:48:13;412.23;;;396.23;;
13250;SDS011;6692;50.710;7.180;2022-11-20T00:50:15;397.67;;;382.33;;
13250;SDS011;6692;50.710;7.180;2022-11-20T00:52:16;381.52;;;366.83;;
13250;SDS011;6692;50.710;7.180;2022-11-20T00:54:17;387.57;;;372.73;;
13250;SDS011;6692;50.710;7.180;2022-11-20T00:56:18;394.50;;;379.20;;
13250;SDS011;6692;50.710;7.180;2022-11-20T00:58:18;409.90;;;393.97;;
13250;SDS011;6692;50.710;7.180;2022-11-20T01:00:19;395.07;;;379.83;;
13250;SDS011;6692;50.710;7.180;2022-11-20T01:02:20;402.37;;;386.73;;
13250;SDS011;6692;50.710;7.180;2022-11-20T01:04:20;400.93;;;385.43;;
13250;SDS011;6692;50.710;7.180;2022-11-20T01:06:23;388.07;;;373.03;;
13250;SDS011;6692;50.710;7.180;2022-11-20T01:08:22;412.38;;;396.55;;
13250;SDS011;6692;50.710;7.180;2022-11-20T01:10:23;392.23;;;376.97;;
13250;SDS011;6692;50.710;7.180;2022-11-20T01:12:24;387.80;;;372.67;;
13250;SDS011;6692;50.710;7.180;2022-11-20T01:14:24;389.47;;;374.17;;
13250;SDS011;6692;50.710;7.180;2022-11-20T01:16:26;396.97;;;381.27;;
13250;SDS011;6692;50.710;7.180;2022-11-20T01:18:26;419.63;;;403.50;;
13250;SDS011;6692;50.710;7.180;2022-11-20T01:20:26;411.60;;;395.57;;
13250;SDS011;6692;50.710;7.180;2022-11-20T01:22:27;421.23;;;404.77;;
13250;SDS011;6692;50.710;7.180;2022-11-20T01:24:28;392.73;;;377.37;;
13250;SDS011;6692;50.710;7.180;2022-11-20T01:26:29;393.17;;;378.13;;
13250;SDS011;6692;50.710;7.180;2022-11-20T01:28:29;373.47;;;359.23;;
13250;SDS011;6692;50.710;7.180;2022-11-20T01:30:30;393.77;;;378.77;;
13250;SDS011;6692;50.710;7.180;2022-11-20T01:32:31;384.60;;;369.90;;
13250;SDS011;6692;50.710;7.180;2022-11-20T01:34:32;378.62;;;364.15;;
13250;SDS011;6692;50.710;7.180;2022-11-20T01:36:33;369.23;;;355.03;;
13250;SDS011;6692;50.710;7.180;2022-11-20T01:38:34;357.27;;;343.57;;
13250;SDS011;6692;50.710;7.180;2022-11-20T01:40:35;385.33;;;370.77;;
13250;SDS011;6692;50.710;7.180;2022-11-20T01:42:35;375.33;;;360.87;;
13250;SDS011;6692;50.710;7.180;2022-11-20T01:44:59;362.67;;;348.55;;
13250;SDS011;6692;50.710;7.180;2022-11-20T01:46:59;371.13;;;356.95;;
13250;SDS011;6692;50.710;7.180;2022-11-20T01:49:02;384.60;;;369.80;;
13250;SDS011;6692;50.710;7.180;2022-11-20T01:51:02;398.02;;;382.55;;
13250;SDS011;6692;50.710;7.180;2022-11-20T01:53:04;382.70;;;368.10;;
13250;SDS011;6692;50.710;7.180;2022-11-20T01:55:06;380.33;;;365.80;;
13250;SDS011;6692;50.710;7.180;2022-11-20T01:57:06;398.77;;;383.40;;
13250;SDS011;6692;50.710;7.180;2022-11-20T01:59:07;383.57;;;368.77;;
13250;SDS011;6692;50.710;7.180;2022-11-20T02:01:07;367.83;;;353.60;;
13250;SDS011;6692;50.710;7.180;2022-11-20T02:03:09;393.13;;;377.90;;
13250;SDS011;6692;50.710;7.180;2022-11-20T02:05:16;387.77;;;372.65;;
13250;SDS011;6692;50.710;7.180;2022-11-20T02:07:15;390.33;;;375.35;;
13250;SDS011;6692;50.710;7.180;2022-11-20T02:09:16;374.45;;;359.75;;
13250;SDS011;6692;50.710;7.180;2022-11-20T02:11:17;362.27;;;348.03;;
13250;SDS011;6692;50.710;7.180;2022-11-20T02:13:17;383.03;;;368.17;;
13250;SDS011;6692;50.710;7.180;2022-11-20T02:15:24;371.05;;;356.83;;
13250;SDS011;6692;50.710;7.180;2022-11-20T02:17:25;369.00;;;354.83;;
13250;SDS011;6692;50.710;7.180;2022-11-20T02:19:26;377.20;;;362.57;;
13250;SDS011;6692;50.710;7.180;2022-11-20T02:21:33;381.17;;;366.27;;
13250;SDS011;6692;50.710;7.180;2022-11-20T02:23:32;385.45;;;370.52;;
13250;SDS011;6692;50.710;7.180;2022-11-20T02:25:31;367.13;;;352.77;;
13250;SDS011;6692;50.710;7.180;2022-11-20T02:27:31;395.63;;;380.17;;
13250;SDS011;6692;50.710;7.180;2022-11-20T02:29:36;391.23;;;376.03;;
13250;SDS011;6692;50.710;7.180;2022-11-20T02:31:36;393.40;;;378.05;;
13250;SDS011;6692;50.710;7.180;2022-11-20T02:33:37;398.95;;;383.48;;
13250;SDS011;6692;50.710;7.180;2022-11-20T02:35:39;406.50;;;390.58;;
13250;SDS011;6692;50.710;7.180;2022-11-20T02:37:39;402.57;;;387.13;;
13250;SDS011;6692;50.710;7.180;2022-11-20T02:39:39;406.13;;;390.40;;
13250;SDS011;6692;50.710;7.180;2022-11-20T02:41:40;396.77;;;381.23;;
13250;SDS011;6692;50.710;7.180;2022-11-20T02:43:41;413.23;;;396.87;;
13250;SDS011;6692;50.710;7.180;2022-11-20T02:45:42;420.10;;;403.57;;
13250;SDS011;6692;50.710;7.180;2022-11-20T02:47:43;425.03;;;408.33;;
13250;SDS011;6692;50.710;7.180;2022-11-20T02:49:44;405.55;;;389.63;;
13250;SDS011;6692;50.710;7.180;2022-11-20T02:51:44;419.07;;;402.60;;
13250;SDS011;6692;50.710;7.180;2022-11-20T02:53:45;422.83;;;406.13;;
13250;SDS011;6692;50.710;7.180;2022-11-20T02:55:46;392.13;;;376.50;;
13250;SDS011;6692;50.710;7.180;2022-11-20T02:57:46;396.83;;;380.97;;
13250;SDS011;6692;50.710;7.180;2022-11-20T02:59:47;386.27;;;371.27;;
13250;SDS011;6692;50.710;7.180;2022-11-20T03:01:48;384.87;;;369.40;;
13250;SDS011;6692;50.710;7.180;2022-11-20T03:03:48;370.47;;;355.77;;
13250;SDS011;6692;50.710;7.180;2022-11-20T03:05:49;405.50;;;389.57;;
13250;SDS011;6692;50.710;7.180;2022-11-20T03:07:49;411.60;;;395.33;;
13250;SDS011;6692;50.710;7.180;2022-11-20T03:09:50;400.23;;;384.17;;
13250;SDS011;6692;50.710;7.180;2022-11-20T03:11:51;413.03;;;396.77;;
13250;SDS011;6692;50.710;7.180;2022-11-20T03:13:51;431.03;;;413.70;;
13250;SDS011;6692;50.710;7.180;2022-11-20T03:15:52;416.73;;;400.20;;
13250;SDS011;6692;50.710;7.180;2022-11-20T03:17:53;402.13;;;386.10;;
13250;SDS011;6692;50.710;7.180;2022-11-20T03:19:53;427.97;;;410.83;;
13250;SDS011;6692;50.710;7.180;2022-11-20T03:21:55;416.43;;;399.87;;
13250;SDS011;6692;50.710;7.180;2022-11-20T03:23:55;423.52;;;406.73;;
13250;SDS011;6692;50.710;7.180;2022-11-20T03:26:06;412.93;;;396.63;;
13250;SDS011;6692;50.710;7.180;2022-11-20T03:27:58;433.73;;;416.70;;
13250;SDS011;6692;50.710;7.180;2022-11-20T03:30:00;428.45;;;411.40;;
13250;SDS011;6692;50.710;7.180;2022-11-20T03:32:01;419.17;;;402.33;;
13250;SDS011;6692;50.710;7.180;2022-11-20T03:34:01;425.10;;;408.13;;
13250;SDS011;6692;50.710;7.180;2022-11-20T03:36:03;441.93;;;424.67;;
13250;SDS011;6692;50.710;7.180;2022-11-20T03:38:03;431.90;;;415.07;;
13250;SDS011;6692;50.710;7.180;2022-11-20T03:40:04;424.70;;;407.73;;
13250;SDS011;6692;50.710;7.180;2022-11-20T03:42:05;396.05;;;380.52;;
13250;SDS011;6692;50.710;7.180;2022-11-20T03:44:07;383.20;;;368.23;;
13250;SDS011;6692;50.710;7.180;2022-11-20T03:46:07;378.17;;;363.10;;
13250;SDS011;6692;50.710;7.180;2022-11-20T03:48:07;377.50;;;362.57;;
13250;SDS011;6692;50.710;7.180;2022-11-20T03:50:09;369.97;;;355.17;;
13250;SDS011;6692;50.710;7.180;2022-11-20T03:52:10;393.60;;;377.95;;
13250;SDS011;6692;50.710;7.180;2022-11-20T03:54:10;370.63;;;356.00;;
13250;SDS011;6692;50.710;7.180;2022-11-20T03:56:12;379.87;;;364.63;;
13250;SDS011;6692;50.710;7.180;2022-11-20T03:58:12;398.95;;;383.02;;
13250;SDS011;6692;50.710;7.180;2022-11-20T04:00:13;384.20;;;368.77;;
13250;SDS011;6692;50.710;7.180;2022-11-20T04:02:15;388.62;;;373.25;;
13250;SDS011;6692;50.710;7.180;2022-11-20T04:04:16;398.17;;;382.43;;
13250;SDS011;6692;50.710;7.180;2022-11-20T04:06:18;398.30;;;382.27;;
13250;SDS011;6692;50.710;7.180;2022-11-20T04:08:20;398.90;;;383.13;;
13250;SDS011;6692;50.710;7.180;2022-11-20T04:10:21;406.47;;;390.60;;
13250;SDS011;6692;50.710;7.180;2022-11-20T04:12:22;409.17;;;392.83;;
13250;SDS011;6692;50.710;7.180;2022-11-20T04:14:22;414.90;;;398.67;;
13250;SDS011;6692;50.710;7.180;2022-11-20T04:16:24;415.70;;;399.27;;
13250;SDS011;6692;50.710;7.180;2022-11-20T04:18:24;424.07;;;407.30;;
13250;SDS011;6692;50.710;7.180;2022-11-20T04:20:25;421.83;;;404.93;;
13250;SDS011;6692;50.710;7.180;2022-11-20T04:22:25;413.03;;;396.97;;
13250;SDS011;6692;50.710;7.180;2022-11-20T04:24:26;453.73;;;435.93;;
13250;SDS011;6692;50.710;7.180;2022-11-20T04:26:27;418.37;;;401.83;;
13250;SDS011;6692;50.710;7.180;2022-11-20T04:28:27;435.40;;;418.10;;
13250;SDS011;6692;50.710;7.180;2022-11-20T04:30:28;420.83;;;404.27;;
13250;SDS011;6692;50.710;7.180;2022-11-20T04:32:29;431.67;;;414.33;;
13250;SDS011;6692;50.710;7.180;2022-11-20T04:34:30;405.97;;;390.07;;
13250;SDS011;6692;50.710;7.180;2022-11-20T04:36:31;413.33;;;397.13;;
13250;SDS011;6692;50.710;7.180;2022-11-20T04:38:31;418.13;;;401.53;;
13250;SDS011;6692;50.710;7.180;2022-11-20T04:40:32;406.60;;;390.30;;
13250;SDS011;6692;50.710;7.180;2022-11-20T04:42:33;423.97;;;407.07;;
13250;SDS011;6692;50.710;7.180;2022-11-20T04:44:34;435.63;;;418.30;;
13250;SDS011;6692;50.710;7.180;2022-11-20T04:46:37;445.75;;;428.55;;
13250;SDS011;6692;50.710;7.180;2022-11-20T04:48:36;436.35;;;419.13;;
13250;SDS011;6692;50.710;7.180;2022-11-20T04:50:39;425.97;;;409.03;;
13250;SDS011;6692;50.710;7.180;2022-11-20T04:52:37;425.03;;;408.03;;
13250;SDS011;6692;50.710;7.180;2022-11-20T04:54:38;444.07;;;426.47;;
13250;SDS011;6692;50.710;7.180;2022-11-20T04:56:39;420.10;;;403.70;;
13250;SDS011;6692;50.710;7.180;2022-11-20T04:58:39;457.73;;;439.87;;
13250;SDS011;6692;50.710;7.180;2022-11-20T05:00:40;425.10;;;408.50;;
13250;SDS011;6692;50.710;7.180;2022-11-20T05:02:41;426.80;;;410.00;;
13250;SDS011;6692;50.710;7.180;2022-11-20T05:04:41;416.83;;;400.50;;
13250;SDS011;6692;50.710;7.180;2022-11-20T05:06:42;404.67;;;388.73;;
13250;SDS011;6692;50.710;7.180;2022-11-20T05:08:43;404.60;;;388.33;;
13250;SDS011;6692;50.710;7.180;2022-11-20T05:10:43;400.13;;;383.83;;
13250;SDS011;6692;50.710;7.180;2022-11-20T05:12:44;391.93;;;376.47;;
13250;SDS011;6692;50.710;7.180;2022-11-20T05:14:45;398.57;;;383.20;;
13250;SDS011;6692;50.710;7.180;2022-11-20T05:16:45;400.83;;;385.10;;
13250;SDS011;6692;50.710;7.180;2022-11-20T05:18:47;400.50;;;384.60;;
13250;SDS011;6692;50.710;7.180;2022-11-20T05:20:53;414.77;;;398.27;;
13250;SDS011;6692;50.710;7.180;2022-11-20T05:22:48;400.23;;;383.97;;
13250;SDS011;6692;50.710;7.180;2022-11-20T05:24:49;397.43;;;381.73;;
13250;SDS011;6692;50.710;7.180;2022-11-20T05:26:49;406.97;;;390.53;;
13250;SDS011;6692;50.710;7.180;2022-11-20T05:28:50;399.77;;;383.70;;
13250;SDS011;6692;50.710;7.180;2022-11-20T05:30:51;412.70;;;396.57;;
13250;SDS011;6692;50.710;7.180;2022-11-20T05:32:52;411.07;;;394.77;;
13250;SDS011;6692;50.710;7.180;2022-11-20T05:34:53;420.50;;;403.40;;
13250;SDS011;6692;50.710;7.180;2022-11-20T05:36:53;418.87;;;402.13;;
13250;SDS011;6692;50.710;7.180;2022-11-20T05:38:55;410.77;;;394.53;;
13250;SDS011;6692;50.710;7.180;2022-11-20T05:41:02;410.58;;;394.35;;
13250;SDS011;6692;50.710;7.180;2022-11-20T05:42:56;406.83;;;390.57;;
13250;SDS011;6692;50.710;7.180;2022-11-20T05:44:59;406.17;;;389.93;;
13250;SDS011;6692;50.710;7.180;2022-11-20T05:46:59;412.38;;;396.12;;
13250;SDS011;6692;50.710;7.180;2022-11-20T05:49:00;424.27;;;406.90;;
13250;SDS011;6692;50.710;7.180;2022-11-20T05:51:01;401.70;;;385.13;;
13250;SDS011;6692;50.710;7.180;2022-11-20T05:53:01;413.80;;;397.17;;
13250;SDS011;6692;50.710;7.180;2022-11-20T05:55:02;404.20;;;388.23;;
13250;SDS011;6692;50.710;7.180;2022-11-20T05:57:03;414.80;;;398.25;;
13250;SDS011;6692;50.710;7.180;2022-11-20T05:59:04;414.17;;;397.33;;
13250;SDS011;6692;50.710;7.180;2022-11-20T06:01:06;407.23;;;390.97;;
13250;SDS011;6692;50.710;7.180;2022-11-20T06:03:06;427.23;;;409.73;;
13250;SDS011;6692;50.710;7.180;2022-11-20T06:05:07;388.27;;;372.70;;
13250;SDS011;6692;50.710;7.180;2022-11-20T06:07:08;392.53;;;376.90;;
13250;SDS011;6692;50.710;7.180;2022-11-20T06:09:09;408.60;;;392.23;;
13250;SDS011;6692;50.710;7.180;2022-11-20T06:11:11;415.40;;;398.50;;
13250;SDS011;6692;50.710;7.180;2022-11-20T06:13:10;405.57;;;389.23;;
13250;SDS011;6692;50.710;7.180;2022-11-20T06:15:11;410.13;;;393.37;;
13250;SDS011;6692;50.710;7.180;2022-11-20T06:17:13;392.37;;;376.47;;
13250;SDS011;6692;50.710;7.180;2022-11-20T06:19:13;403.40;;;387.05;;
13250;SDS011;6692;50.710;7.180;2022-11-20T06:21:15;400.97;;;384.83;;
13250;SDS011;6692;50.710;7.180;2022-11-20T06:23:16;407.40;;;390.63;;
13250;SDS011;6692;50.710;7.180;2022-11-20T06:25:17;422.67;;;405.53;;
13250;SDS011;6692;50.710;7.180;2022-11-20T06:27:18;434.37;;;416.80;;
13250;SDS011;6692;50.710;7.180;2022-11-20T06:29:18;434.97;;;417.10;;
13250;SDS011;6692;50.710;7.180;2022-11-20T06:31:20;430.83;;;413.67;;
13250;SDS011;6692;50.710;7.180;2022-11-20T06:33:20;436.13;;;418.63;;
13250;SDS011;6692;50.710;7.180;2022-11-20T06:35:20;440.57;;;422.83;;
13250;SDS011;6692;50.710;7.180;2022-11-20T06:37:21;446.60;;;428.63;;
13250;SDS011;6692;50.710;7.180;2022-11-20T06:39:22;441.23;;;423.60;;
13250;SDS011;6692;50.710;7.180;2022-11-20T06:41:22;440.33;;;422.77;;
13250;SDS011;6692;50.710;7.180;2022-11-20T06:43:23;451.40;;;433.47;;
13250;SDS011;6692;50.710;7.180;2022-11-20T06:45:24;444.97;;;427.23;;
13250;SDS011;6692;50.710;7.180;2022-11-20T06:47:24;456.63;;;438.30;;
13250;SDS011;6692;50.710;7.180;2022-11-20T06:49:26;454.87;;;436.03;;
13250;SDS011;6692;50.710;7.180;2022-11-20T06:51:27;446.50;;;428.60;;
13250;SDS011;6692;50.710;7.180;2022-11-20T06:53:28;440.97;;;423.07;;
13250;SDS011;6692;50.710;7.180;2022-11-20T06:55:29;452.40;;;434.43;;
13250;SDS011;6692;50.710;7.180;2022-11-20T06:57:29;471.77;;;452.77;;
13250;SDS011;6692;50.710;7.180;2022-11-20T06:59:30;466.53;;;448.00;;
13250;SDS011;6692;50.710;7.180;2022-11-20T07:01:30;465.87;;;446.97;;
13250;SDS011;6692;50.710;7.180;2022-11-20T07:03:31;477.83;;;458.47;;
13250;SDS011;6692;50.710;7.180;2022-11-20T07:05:32;468.10;;;448.80;;
13250;SDS011;6692;50.710;7.180;2022-11-20T07:07:32;473.87;;;454.23;;
13250;SDS011;6692;50.710;7.180;2022-11-20T07:09:33;488.87;;;468.87;;
13250;SDS011;6692;50.710;7.180;2022-11-20T07:11:34;480.07;;;460.17;;
13250;SDS011;6692;50.710;7.180;2022-11-20T07:13:34;468.17;;;449.13;;
13250;SDS011;6692;50.710;7.180;2022-11-20T07:15:36;480.87;;;460.90;;
13250;SDS011;6692;50.710;7.180;2022-11-20T07:17:37;462.27;;;443.47;;
13250;SDS011;6692;50.710;7.180;2022-11-20T07:19:37;472.07;;;452.63;;
13250;SDS011;6692;50.710;7.180;2022-11-20T07:21:38;472.10;;;452.43;;
13250;SDS011;6692;50.710;7.180;2022-11-20T07:23:39;480.97;;;460.97;;
13250;SDS011;6692;50.710;7.180;2022-11-20T07:25:39;461.07;;;441.60;;
13250;SDS011;6692;50.710;7.180;2022-11-20T07:27:40;477.37;;;457.60;;
13250;SDS011;6692;50.710;7.180;2022-11-20T07:29:41;467.70;;;448.47;;
13250;SDS011;6692;50.710;7.180;2022-11-20T07:31:42;467.90;;;448.77;;
13250;SDS011;6692;50.710;7.180;2022-11-20T07:33:43;474.77;;;455.23;;
13250;SDS011;6692;50.710;7.180;2022-11-20T07:35:43;462.77;;;443.90;;
13250;SDS011;6692;50.710;7.180;2022-11-20T07:37:44;469.23;;;449.70;;
13250;SDS011;6692;50.710;7.180;2022-11-20T07:39:45;473.20;;;453.83;;
13250;SDS011;6692;50.710;7.180;2022-11-20T07:41:45;467.57;;;448.33;;
13250;SDS011;6692;50.710;7.180;2022-11-20T07:43:47;468.60;;;449.33;;
13250;SDS011;6692;50.710;7.180;2022-11-20T07:45:47;463.50;;;444.55;;
13250;SDS011;6692;50.710;7.180;2022-11-20T07:47:48;463.27;;;444.50;;
13250;SDS011;6692;50.710;7.180;2022-11-20T07:49:49;456.87;;;438.43;;
13250;SDS011;6692;50.710;7.180;2022-11-20T07:51:50;463.60;;;444.80;;
13250;SDS011;6692;50.710;7.180;2022-11-20T07:53:51;464.20;;;445.30;;
13250;SDS011;6692;50.710;7.180;2022-11-20T07:55:51;447.67;;;429.60;;
13250;SDS011;6692;50.710;7.180;2022-11-20T07:57:54;439.00;;;421.23;;
13250;SDS011;6692;50.710;7.180;2022-11-20T07:59:55;470.67;;;451.55;;
13250;SDS011;6692;50.710;7.180;2022-11-20T08:01:56;459.27;;;440.67;;
13250;SDS011;6692;50.710;7.180;2022-11-20T08:03:57;458.77;;;440.15;;
13250;SDS011;6692;50.710;7.180;2022-11-20T08:05:59;455.00;;;436.03;;
13250;SDS011;6692;50.710;7.180;2022-11-20T08:07:59;459.42;;;440.85;;
13250;SDS011;6692;50.710;7.180;2022-11-20T08:10:00;460.23;;;441.40;;
13250;SDS011;6692;50.710;7.180;2022-11-20T08:12:00;463.47;;;444.43;;
13250;SDS011;6692;50.710;7.180;2022-11-20T08:14:07;435.83;;;418.00;;
13250;SDS011;6692;50.710;7.180;2022-11-20T08:16:12;457.90;;;439.57;;
13250;SDS011;6692;50.710;7.180;2022-11-20T08:18:13;452.53;;;434.10;;
13250;SDS011;6692;50.710;7.180;2022-11-20T08:20:14;455.70;;;436.80;;
13250;SDS011;6692;50.710;7.180;2022-11-20T08:22:14;460.23;;;441.23;;
13250;SDS011;6692;50.710;7.180;2022-11-20T08:24:16;476.87;;;457.10;;
13250;SDS011;6692;50.710;7.180;2022-11-20T08:26:16;486.75;;;466.48;;
13250;SDS011;6692;50.710;7.180;2022-11-20T08:28:17;482.30;;;462.40;;
13250;SDS011;6692;50.710;7.180;2022-11-20T08:30:18;481.40;;;461.17;;
13250;SDS011;6692;50.710;7.180;2022-11-20T08:32:18;504.00;;;482.77;;
13250;SDS011;6692;50.710;7.180;2022-11-20T08:34:19;514.77;;;493.37;;
13250;SDS011;6692;50.710;7.180;2022-11-20T08:36:20;525.57;;;503.10;;
13250;SDS011;6692;50.710;7.180;2022-11-20T08:38:20;522.13;;;500.00;;
13250;SDS011;6692;50.710;7.180;2022-11-20T08:40:21;518.67;;;496.93;;
13250;SDS011;6692;50.710;7.180;2022-11-20T08:42:22;541.20;;;518.37;;
13250;SDS011;6692;50.710;7.180;2022-11-20T08:44:22;548.30;;;525.10;;
13250;SDS011;6692;50.710;7.180;2022-11-20T08:46:24;561.03;;;537.03;;
13250;SDS011;6692;50.710;7.180;2022-11-20T08:48:25;568.77;;;544.57;;
13250;SDS011;6692;50.710;7.180;2022-11-20T08:50:26;564.20;;;540.07;;
13250;SDS011;6692;50.710;7.180;2022-11-20T08:52:27;564.77;;;540.40;;
13250;SDS011;6692;50.710;7.180;2022-11-20T08:54:27;550.47;;;527.27;;
13250;SDS011;6692;50.710;7.180;2022-11-20T08:56:28;549.30;;;525.97;;
13250;SDS011;6692;50.710;7.180;2022-11-20T08:58:28;504.03;;;482.53;;
13250;SDS011;6692;50.710;7.180;2022-11-20T09:00:29;504.30;;;483.00;;
13250;SDS011;6692;50.710;7.180;2022-11-20T09:02:31;507.70;;;486.33;;
13250;SDS011;6692;50.710;7.180;2022-11-20T09:04:32;490.60;;;469.50;;
13250;SDS011;6692;50.710;7.180;2022-11-20T09:06:33;484.73;;;464.90;;
13250;SDS011;6692;50.710;7.180;2022-11-20T09:08:33;500.70;;;479.60;;
13250;SDS011;6692;50.710;7.180;2022-11-20T09:10:34;489.30;;;469.13;;
13250;SDS011;6692;50.710;7.180;2022-11-20T09:12:35;475.70;;;455.87;;
13250;SDS011;6692;50.710;7.180;2022-11-20T09:14:35;487.23;;;466.97;;
13250;SDS011;6692;50.710;7.180;2022-11-20T09:16:36;510.83;;;489.23;;
13250;SDS011;6692;50.710;7.180;2022-11-20T09:18:37;509.73;;;488.37;;
13250;SDS011;6692;50.710;7.180;2022-11-20T09:20:37;546.30;;;523.23;;
13250;SDS011;6692;50.710;7.180;2022-11-20T09:22:39;553.03;;;529.67;;
13250;SDS011;6692;50.710;7.180;2022-11-20T09:24:39;555.43;;;531.50;;
13250;SDS011;6692;50.710;7.180;2022-11-20T09:26:39;571.93;;;547.27;;
13250;SDS011;6692;50.710;7.180;2022-11-20T09:28:40;587.07;;;561.50;;
13250;SDS011;6692;50.710;7.180;2022-11-20T09:30:41;591.63;;;565.60;;
13250;SDS011;6692;50.710;7.180;2022-11-20T09:32:42;595.83;;;569.27;;
13250;SDS011;6692;50.710;7.180;2022-11-20T09:34:43;557.83;;;533.03;;
13250;SDS011;6692;50.710;7.180;2022-11-20T09:36:43;557.93;;;534.00;;
13250;SDS011;6692;50.710;7.180;2022-11-20T09:38:44;560.90;;;536.37;;
13250;SDS011;6692;50.710;7.180;2022-11-20T09:40:46;539.93;;;516.03;;
13250;SDS011;6692;50.710;7.180;2022-11-20T09:42:56;558.87;;;533.77;;
13250;SDS011;6692;50.710;7.180;2022-11-20T09:45:02;565.13;;;540.13;;
13250;SDS011;6692;50.710;7.180;2022-11-20T09:51:59;586.80;;;560.53;;
13250;SDS011;6692;50.710;7.180;2022-11-20T09:54:05;601.00;;;573.93;;
13250;SDS011;6692;50.710;7.180;2022-11-20T09:56:08;608.87;;;581.57;;
13250;SDS011;6692;50.710;7.180;2022-11-20T09:58:13;596.23;;;569.57;;
13250;SDS011;6692;50.710;7.180;2022-11-20T10:00:11;598.50;;;571.37;;
13250;SDS011;6692;50.710;7.180;2022-11-20T10:04:49;542.07;;;519.20;;
13250;SDS011;6692;50.710;7.180;2022-11-20T10:06:56;552.53;;;528.33;;
13250;SDS011;6692;50.710;7.180;2022-11-20T10:09:18;513.30;;;491.07;;
13250;SDS011;6692;50.710;7.180;2022-11-20T10:11:54;512.60;;;490.53;;
13250;SDS011;6692;50.710;7.180;2022-11-20T10:13:52;477.00;;;457.13;;
13250;SDS011;6692;50.710;7.180;2022-11-20T10:15:58;508.27;;;486.70;;
13250;SDS011;6692;50.710;7.180;2022-11-20T10:19:14;512.93;;;491.17;;
13250;SDS011;6692;50.710;7.180;2022-11-20T10:20:41;511.43;;;489.27;;
13250;SDS011;6692;50.710;7.180;2022-11-20T10:22:46;575.53;;;550.30;;
13250;SDS011;6692;50.710;7.180;2022-11-20T10:25:01;575.33;;;550.33;;
13250;SDS011;6692;50.710;7.180;2022-11-20T10:27:21;592.60;;;566.93;;
13250;SDS011;6692;50.710;7.180;2022-11-20T10:29:38;557.10;;;533.33;;
13250;SDS011;6692;50.710;7.180;2022-11-20T10:31:40;569.30;;;544.83;;
13250;SDS011;6692;50.710;7.180;2022-11-20T10:33:41;529.97;;;507.23;;
13250;SDS011;6692;50.710;7.180;2022-11-20T10:35:50;535.60;;;512.47;;
13250;SDS011;6692;50.710;7.180;2022-11-20T10:37:57;552.30;;;528.63;;
13250;SDS011;6692;50.710;7.180;2022-11-20T10:40:18;577.33;;;551.80;;
13250;SDS011;6692;50.710;7.180;2022-11-20T10:42:23;572.73;;;547.60;;
13250;SDS011;6692;50.710;7.180;2022-11-20T10:44:22;578.70;;;553.40;;
13250;SDS011;6692;50.710;7.180;2022-11-20T10:46:30;594.03;;;567.27;;
13250;SDS011;6692;50.710;7.180;2022-11-20T10:48:30;590.43;;;564.80;;
13250;SDS011;6692;50.710;7.180;2022-11-20T10:50:29;565.23;;;541.33;;
13250;SDS011;6692;50.710;7.180;2022-11-20T10:52:37;579.73;;;554.60;;
13250;SDS011;6692;50.710;7.180;2022-11-20T10:54:51;572.50;;;547.60;;
13250;SDS011;6692;50.710;7.180;2022-11-20T10:56:51;589.43;;;563.60;;
13250;SDS011;6692;50.710;7.180;2022-11-20T10:58:54;605.40;;;578.37;;
13250;SDS011;6692;50.710;7.180;2022-11-20T11:01:02;613.27;;;586.10;;
13250;SDS011;6692;50.710;7.180;2022-11-20T11:02:54;610.37;;;583.00;;
13250;SDS011;6692;50.710;7.180;2022-11-20T11:04:54;635.73;;;606.90;;
13250;SDS011;6692;50.710;7.180;2022-11-20T11:06:56;614.70;;;587.40;;
13250;SDS011;6692;50.710;7.180;2022-11-20T11:08:56;586.57;;;560.70;;
13250;SDS011;6692;50.710;7.180;2022-11-20T11:10:57;591.17;;;565.33;;
13250;SDS011;6692;50.710;7.180;2022-11-20T11:12:57;601.63;;;575.37;;
13250;SDS011;6692;50.710;7.180;2022-11-20T11:14:58;599.63;;;573.37;;
13250;SDS011;6692;50.710;7.180;2022-11-20T11:16:59;606.33;;;579.47;;
13250;SDS011;6692;50.710;7.180;2022-11-20T11:19:03;614.50;;;587.03;;
13250;SDS011;6692;50.710;7.180;2022-11-20T11:21:05;613.00;;;586.17;;
13250;SDS011;6692;50.710;7.180;2022-11-20T11:23:10;641.27;;;612.90;;
13250;SDS011;6692;50.710;7.180;2022-11-20T11:25:07;641.70;;;612.70;;
13250;SDS011;6692;50.710;7.180;2022-11-20T11:27:11;649.47;;;619.87;;
13250;SDS011;6692;50.710;7.180;2022-11-20T11:29:15;659.50;;;629.30;;
13250;SDS011;6692;50.710;7.180;2022-11-20T11:31:21;653.80;;;623.93;;
13250;SDS011;6692;50.710;7.180;2022-11-20T11:33:19;633.80;;;605.53;;
13250;SDS011;6692;50.710;7.180;2022-11-20T11:35:21;625.30;;;597.47;;
13250;SDS011;6692;50.710;7.180;2022-11-20T11:37:22;636.10;;;607.27;;
13250;SDS011;6692;50.710;7.180;2022-11-20T11:39:23;655.43;;;625.47;;
13250;SDS011;6692;50.710;7.180;2022-11-20T11:41:25;690.37;;;658.47;;
13250;SDS011;6692;50.710;7.180;2022-11-20T11:43:25;663.70;;;633.20;;
13250;SDS011;6692;50.710;7.180;2022-11-20T11:45:32;637.97;;;609.07;;
13250;SDS011;6692;50.710;7.180;2022-11-20T11:47:36;632.30;;;603.70;;
13250;SDS011;6692;50.710;7.180;2022-11-20T11:49:36;615.43;;;587.83;;